Time;durP1;ratioP1;P1;durP2;ratioP2;P2;SDS_P1;SDS_P2;PMS_P1;PMS_P2;Temp;Humidity;BMP_temperature;BMP_pressure;BME280_temperature;BME280_humidity;BME280_pressure;Samples;Min_cycle;Max_cycle;Signal;HPM_P1;HPM_P2
2023/10/11 00:00:58;;;;;;;39.90;15.70;;;16.60;99.90;;;;;;4976934;28;20053;-75
2023/10/11 00:03:53;;;;;;;39.05;16.45;;;16.50;99.90;;;;;;4964036;28;20113;-74
2023/10/11 00:06:39;;;;;;;41.20;13.85;;;16.60;99.90;;;;;;4977563;28;20057;-77
2023/10/11 00:09:35;;;;;;;42.85;15.88;;;16.60;99.90;;;;;;4978071;28;20105;-73
2023/10/11 00:12:22;;;;;;;38.42;14.10;;;16.60;99.90;;;;;;4978100;28;20517;-74
2023/10/11 00:15:09;;;;;;;39.15;14.20;;;16.60;99.90;;;;;;4977771;28;20092;-74
2023/10/11 00:17:56;;;;;;;44.20;16.05;;;16.60;99.90;;;;;;4977518;28;20062;-73
2023/10/11 00:23:31;;;;;;;43.13;14.88;;;16.60;99.90;;;;;;4978870;28;20058;-75
2023/10/11 00:26:18;;;;;;;39.40;13.85;;;16.60;99.90;;;;;;4978393;28;20402;-72
2023/10/11 00:29:04;;;;;;;51.38;15.55;;;16.60;99.90;;;;;;4979557;28;20086;-79
2023/10/11 00:31:51;;;;;;;38.03;15.57;;;16.50;99.90;;;;;;4978961;28;20058;-74
2023/10/11 00:34:38;;;;;;;37.10;13.88;;;16.50;99.90;;;;;;4977663;28;20061;-73
2023/10/11 00:37:25;;;;;;;35.95;14.15;;;16.50;99.90;;;;;;4976742;28;20130;-72
2023/10/11 00:40:14;;;;;;;45.25;15.40;;;16.50;99.90;;;;;;4976768;28;20059;-72
2023/10/11 00:43:00;;;;;;;43.15;15.65;;;16.50;99.90;;;;;;4975773;28;20054;-73
2023/10/11 00:45:48;;;;;;;36.90;15.30;;;16.50;99.90;;;;;;4977048;28;20116;-73
2023/10/11 00:48:51;;;;;;;42.88;15.38;;;16.50;99.90;;;;;;4993912;28;20141;-73
2023/10/11 00:51:41;;;;;;;46.38;17.15;;;16.40;99.90;;;;;;4994059;28;20050;-73
2023/10/11 00:54:27;;;;;;;48.88;15.18;;;16.50;99.90;;;;;;4977000;28;20050;-73
2023/10/11 00:57:15;;;;;;;44.72;16.77;;;16.40;99.90;;;;;;4976016;28;20093;-73
2023/10/11 01:00:01;;;;;;;37.28;14.68;;;16.40;99.90;;;;;;4976532;28;20058;-73
2023/10/11 01:02:52;;;;;;;40.15;15.88;;;16.40;99.90;;;;;;4976956;28;20573;-73
2023/10/11 01:05:43;;;;;;;44.90;15.68;;;16.40;99.90;;;;;;4975749;28;20049;-75
2023/10/11 01:08:38;;;;;;;41.28;15.93;;;16.40;99.90;;;;;;4976254;28;20112;-74
2023/10/11 01:11:26;;;;;;;43.50;14.25;;;16.40;99.90;;;;;;4976327;28;20197;-73
2023/10/11 01:14:12;;;;;;;41.75;16.02;;;16.40;99.90;;;;;;4962970;28;20076;-74
2023/10/11 01:16:59;;;;;;;39.67;14.70;;;16.40;99.90;;;;;;4976643;28;20140;-73
2023/10/11 01:19:45;;;;;;;41.72;14.30;;;16.40;99.90;;;;;;4976095;28;20063;-74
2023/10/11 01:22:31;;;;;;;34.38;14.00;;;16.40;99.90;;;;;;4961720;28;20141;-73
2023/10/11 01:25:20;;;;;;;38.22;13.77;;;16.40;99.90;;;;;;4976375;28;20065;-74
2023/10/11 01:28:06;;;;;;;38.03;13.65;;;16.40;99.90;;;;;;4975036;28;20129;-74
2023/10/11 01:30:52;;;;;;;49.47;15.15;;;16.40;99.90;;;;;;4963175;28;20550;-73
2023/10/11 01:33:42;;;;;;;40.33;14.68;;;16.40;99.90;;;;;;4976507;28;20050;-73
2023/10/11 01:36:29;;;;;;;38.72;14.60;;;16.50;99.90;;;;;;4975599;28;20061;-74
2023/10/11 01:39:15;;;;;;;41.55;14.90;;;16.50;99.90;;;;;;4975900;28;20054;-77
2023/10/11 01:42:01;;;;;;;42.22;13.90;;;16.50;99.90;;;;;;4961133;28;20058;-73
2023/10/11 01:44:49;;;;;;;35.25;13.77;;;16.50;99.90;;;;;;4976345;28;20050;-73
2023/10/11 01:47:35;;;;;;;33.33;11.73;;;16.50;99.90;;;;;;4976335;28;20590;-73
2023/10/11 01:50:22;;;;;;;31.20;13.43;;;16.50;99.90;;;;;;4975963;28;20061;-74
2023/10/11 01:53:08;;;;;;;40.42;13.90;;;16.40;99.90;;;;;;4976252;28;20046;-74
2023/10/11 01:55:55;;;;;;;31.35;12.40;;;16.50;99.90;;;;;;4975657;28;20059;-83
2023/10/11 01:58:43;;;;;;;39.50;14.10;;;16.50;99.90;;;;;;4975710;28;20412;-72
2023/10/11 02:01:38;;;;;;;43.42;12.82;;;16.50;99.90;;;;;;4975474;28;20047;-74
2023/10/11 02:04:25;;;;;;;29.20;11.13;;;16.50;99.90;;;;;;4975717;28;20060;-74
2023/10/11 02:07:12;;;;;;;35.58;11.95;;;16.50;99.90;;;;;;4975383;28;20104;-73
2023/10/11 02:09:58;;;;;;;41.50;13.32;;;16.50;99.90;;;;;;4992434;28;20495;-74
2023/10/11 02:12:44;;;;;;;24.65;11.63;;;16.50;99.90;;;;;;4975587;28;20057;-73
2023/10/11 02:15:30;;;;;;;34.42;11.23;;;16.50;99.90;;;;;;4974987;28;20062;-83
2023/10/11 02:18:16;;;;;;;31.13;10.57;;;16.60;99.90;;;;;;4974990;28;20149;-77
2023/10/11 02:21:08;;;;;;;34.50;10.35;;;16.60;99.90;;;;;;4975445;28;20054;-73
2023/10/11 02:23:56;;;;;;;26.75;11.35;;;16.50;99.90;;;;;;4975005;28;20170;-75
2023/10/11 02:26:49;;;;;;;36.67;10.88;;;16.60;99.90;;;;;;4975241;28;20088;-74
2023/10/11 02:29:35;;;;;;;35.67;10.45;;;16.50;99.90;;;;;;4975300;28;20145;-77
2023/10/11 02:32:21;;;;;;;35.47;11.68;;;16.60;99.90;;;;;;4960541;28;20466;-74
2023/10/11 02:35:12;;;;;;;38.50;12.30;;;16.60;99.90;;;;;;4978118;28;20050;-75
2023/10/11 02:38:02;;;;;;;28.60;10.73;;;16.60;99.90;;;;;;4975314;28;20057;-74
2023/10/11 02:40:57;;;;;;;34.70;10.32;;;16.60;99.90;;;;;;4974724;28;20065;-75
2023/10/11 02:43:49;;;;;;;25.88;9.80;;;16.60;99.90;;;;;;4975468;28;20145;-78
2023/10/11 02:46:35;;;;;;;27.45;10.15;;;16.60;99.90;;;;;;4991987;28;20046;-77
2023/10/11 02:49:21;;;;;;;29.10;11.25;;;16.60;99.90;;;;;;4974618;28;20059;-73
2023/10/11 02:52:07;;;;;;;30.45;10.15;;;16.60;99.90;;;;;;4960016;28;20062;-73
2023/10/11 02:54:54;;;;;;;28.27;10.60;;;16.60;99.90;;;;;;4974748;28;20054;-75
2023/10/11 02:57:40;;;;;;;31.38;10.65;;;16.60;99.90;;;;;;4974740;28;20054;-77
2023/10/11 03:00:26;;;;;;;32.78;10.77;;;16.60;99.90;;;;;;4974933;28;20082;-73
2023/10/11 03:03:15;;;;;;;26.23;9.48;;;16.60;99.90;;;;;;4974826;28;20058;-76
2023/10/11 03:06:01;;;;;;;34.00;10.63;;;16.60;99.90;;;;;;4975435;28;20149;-78
2023/10/11 03:08:47;;;;;;;36.10;11.35;;;16.60;99.90;;;;;;4974753;28;20464;-74
2023/10/11 03:11:34;;;;;;;41.63;12.40;;;16.60;99.90;;;;;;4975532;28;20086;-73
2023/10/11 03:14:20;;;;;;;27.40;10.07;;;16.60;99.90;;;;;;4975170;28;20058;-81
2023/10/11 03:17:06;;;;;;;27.48;9.00;;;16.60;99.90;;;;;;4973838;28;20049;-76
2023/10/11 03:19:52;;;;;;;32.40;9.88;;;16.60;99.90;;;;;;4973401;28;20054;-73
2023/10/11 03:22:38;;;;;;;37.35;10.48;;;16.60;99.90;;;;;;4974177;28;20054;-73
2023/10/11 03:25:27;;;;;;;29.73;9.48;;;16.60;99.90;;;;;;4974672;28;20670;-77
2023/10/11 03:28:15;;;;;;;26.70;10.82;;;16.50;99.90;;;;;;4974295;28;20051;-74
2023/10/11 03:31:01;;;;;;;33.25;12.60;;;16.50;99.90;;;;;;4995730;28;20058;-73
2023/10/11 03:33:47;;;;;;;26.70;9.88;;;16.60;99.90;;;;;;4995841;28;20046;-73
2023/10/11 03:36:43;;;;;;;28.30;10.20;;;16.50;99.90;;;;;;4978418;28;20112;-74
2023/10/11 03:42:17;;;;;;;24.23;9.18;;;16.50;99.90;;;;;;4978945;28;20065;-74
2023/10/11 03:45:04;;;;;;;42.30;11.02;;;16.50;99.90;;;;;;4978224;28;20050;-80
2023/10/11 03:47:52;;;;;;;31.90;10.63;;;16.50;99.90;;;;;;4995558;28;20061;-78
2023/10/11 03:50:47;;;;;;;29.63;9.63;;;16.40;99.90;;;;;;4963467;28;20054;-74
2023/10/11 03:53:33;;;;;;;31.55;10.88;;;16.40;99.90;;;;;;4978283;28;20061;-73
2023/10/11 03:56:19;;;;;;;38.85;11.85;;;16.30;99.90;;;;;;4978094;28;20133;-73
2023/10/11 03:59:06;;;;;;;38.70;10.95;;;16.30;99.90;;;;;;4977727;28;20214;-74
2023/10/11 04:01:53;;;;;;;31.83;11.07;;;16.30;99.90;;;;;;4977643;28;20058;-73
2023/10/11 04:04:42;;;;;;;35.42;12.20;;;16.20;99.90;;;;;;4964307;28;20193;-74
2023/10/11 04:07:31;;;;;;;33.33;10.23;;;16.30;99.90;;;;;;4977831;28;20081;-77
2023/10/11 04:10:32;;;;;;;28.02;10.82;;;16.20;99.90;;;;;;5000065;28;20078;-83
2023/10/11 04:13:25;;;;;;;31.65;10.10;;;16.20;99.90;;;;;;4976539;28;20046;-75
2023/10/11 04:16:12;;;;;;;28.10;10.05;;;16.20;99.90;;;;;;4978239;28;20172;-74
2023/10/11 04:19:02;;;;;;;45.00;12.15;;;16.10;99.90;;;;;;4994683;28;20046;-74
2023/10/11 04:24:38;;;;;;;39.15;11.32;;;16.10;99.90;;;;;;4979138;28;20046;-81
2023/10/11 04:27:45;;;;;;;39.05;12.52;;;16.10;99.90;;;;;;4983245;28;20050;-87
2023/10/11 04:30:44;;;;;;;36.30;9.88;;;16.10;99.90;;;;;;4979701;28;20565;-81
2023/10/11 04:33:31;;;;;;;37.42;10.07;;;16.10;99.90;;;;;;4977958;28;20058;-78
2023/10/11 04:36:20;;;;;;;37.70;10.27;;;16.10;99.90;;;;;;4998615;28;20054;-85
2023/10/11 04:39:15;;;;;;;34.58;12.48;;;16.10;99.90;;;;;;4978465;28;20105;-75
2023/10/11 04:42:02;;;;;;;28.27;11.43;;;16.10;99.90;;;;;;4977698;28;20262;-78
2023/10/11 04:44:54;;;;;;;33.08;10.80;;;16.10;99.90;;;;;;4994127;28;20050;-73
2023/10/11 04:47:50;;;;;;;32.53;10.93;;;16.10;99.90;;;;;;4977546;28;20158;-80
2023/10/11 04:50:43;;;;;;;30.42;11.38;;;16.10;99.90;;;;;;4976901;28;20152;-74
2023/10/11 04:53:34;;;;;;;39.33;13.80;;;16.10;99.90;;;;;;4977393;28;20133;-73
2023/10/11 05:02:32;;;;;;;32.03;11.60;;;16.10;99.90;;;;;;4976656;28;20054;-73
2023/10/11 05:05:21;;;;;;;25.77;10.18;;;16.10;99.90;;;;;;4976170;28;20197;-74
2023/10/11 05:08:20;;;;;;;36.33;12.45;;;16.20;99.90;;;;;;4976873;28;20065;-79
2023/10/11 05:11:18;;;;;;;31.35;11.55;;;16.20;99.90;;;;;;4977004;28;20133;-74
2023/10/11 05:14:26;;;;;;;28.83;11.63;;;16.20;99.90;;;;;;4977022;28;20054;-73
2023/10/11 05:22:52;;;;;;;26.05;10.88;;;16.30;99.90;;;;;;4975860;28;20066;-72
2023/10/11 05:25:58;;;;;;;29.63;10.15;;;16.30;99.90;;;;;;4976619;28;20054;-74
2023/10/11 05:28:51;;;;;;;31.67;11.48;;;16.40;99.90;;;;;;4975480;28;20046;-76
2023/10/11 05:32:07;;;;;;;30.65;11.25;;;16.40;99.90;;;;;;4975868;28;20050;-83
2023/10/11 05:35:11;;;;;;;33.50;11.63;;;16.40;99.90;;;;;;4975541;28;20066;-77
2023/10/11 05:53:29;;;;;;;31.90;11.30;;;16.60;99.90;;;;;;4993218;28;20042;-81
2023/10/11 05:56:22;;;;;;;32.25;10.90;;;16.60;99.90;;;;;;4961175;28;20462;-74
2023/10/11 05:59:10;;;;;;;31.75;10.90;;;16.60;99.90;;;;;;4961904;28;20097;-79
2023/10/11 06:01:56;;;;;;;30.70;11.02;;;16.70;99.90;;;;;;4975778;28;20046;-73
2023/10/11 06:04:42;;;;;;;30.70;11.15;;;16.70;99.90;;;;;;4976314;28;20054;-83
2023/10/11 06:07:36;;;;;;;33.95;10.95;;;16.70;99.90;;;;;;4992423;28;20053;-73
2023/10/11 06:10:29;;;;;;;35.63;10.32;;;16.70;99.90;;;;;;4975765;28;20050;-77
2023/10/11 06:13:15;;;;;;;27.80;10.52;;;16.70;99.90;;;;;;4973921;28;20065;-80
2023/10/11 06:16:02;;;;;;;31.38;10.65;;;16.70;99.90;;;;;;4975609;28;20061;-75
2023/10/11 06:19:15;;;;;;;30.73;10.88;;;16.70;99.90;;;;;;4974641;28;20134;-76
2023/10/11 06:22:10;;;;;;;34.97;10.38;;;16.70;99.90;;;;;;4974782;28;20177;-76
2023/10/11 06:24:58;;;;;;;37.08;10.98;;;16.80;99.90;;;;;;4975455;28;20089;-77
2023/10/11 06:30:50;;;;;;;35.13;11.75;;;16.80;99.90;;;;;;4974645;28;20089;-77
2023/10/11 06:33:44;;;;;;;30.98;11.38;;;16.90;99.90;;;;;;4974643;28;20414;-75
2023/10/11 06:36:34;;;;;;;30.13;10.20;;;16.90;99.90;;;;;;4992269;28;20530;-88
2023/10/11 06:42:31;;;;;;;26.00;10.02;;;16.90;99.90;;;;;;4974157;28;20058;-76
2023/10/11 06:45:17;;;;;;;29.98;11.32;;;17.00;99.90;;;;;;4974583;28;20793;-73
2023/10/11 06:48:06;;;;;;;22.92;9.80;;;17.00;99.90;;;;;;4974683;28;20100;-83
2023/10/11 06:50:52;;;;;;;25.95;10.38;;;17.00;99.90;;;;;;4975054;28;20437;-74
2023/10/11 06:53:42;;;;;;;30.25;10.32;;;17.00;99.90;;;;;;4973476;28;20068;-76
2023/10/11 06:56:28;;;;;;;26.83;10.40;;;17.00;99.90;;;;;;4974488;28;20089;-84
2023/10/11 06:59:14;;;;;;;22.85;9.35;;;17.00;99.90;;;;;;4974124;28;20061;-83
2023/10/11 07:02:00;;;;;;;25.35;10.10;;;17.00;99.90;;;;;;4974987;28;20422;-79
2023/10/11 07:04:50;;;;;;;22.77;9.05;;;17.00;99.90;;;;;;4947335;28;20050;-86
2023/10/11 07:07:36;;;;;;;19.27;8.98;;;17.10;99.90;;;;;;4973280;28;20117;-79
2023/10/11 07:10:31;;;;;;;22.65;10.00;;;17.10;99.90;;;;;;4959732;28;20050;-78
2023/10/11 07:13:17;;;;;;;25.85;9.32;;;17.10;99.90;;;;;;4974764;28;20158;-74
2023/10/11 07:16:08;;;;;;;27.52;10.45;;;17.10;99.90;;;;;;4974736;28;20510;-74
2023/10/11 07:18:56;;;;;;;27.60;9.98;;;17.10;99.90;;;;;;4974442;28;20454;-77
2023/10/11 07:24:33;;;;;;;19.88;8.52;;;17.20;99.90;;;;;;4973950;28;20093;-74
2023/10/11 07:27:26;;;;;;;23.80;8.85;;;17.20;99.90;;;;;;4973768;28;20113;-77
2023/10/11 07:30:19;;;;;;;27.88;9.80;;;17.20;99.90;;;;;;4960779;28;20058;-75
2023/10/11 07:33:05;;;;;;;25.77;9.57;;;17.20;99.90;;;;;;4973585;28;20058;-76
2023/10/11 07:35:51;;;;;;;24.63;8.88;;;17.20;99.90;;;;;;4974091;28;20149;-77
2023/10/11 07:38:43;;;;;;;25.30;8.95;;;17.20;99.90;;;;;;4960395;28;20525;-76
2023/10/11 07:41:29;;;;;;;22.70;8.80;;;17.20;99.90;;;;;;4974285;28;20054;-75
2023/10/11 07:44:18;;;;;;;20.55;9.40;;;17.20;99.90;;;;;;4973712;28;20462;-82
2023/10/11 07:47:15;;;;;;;19.17;8.35;;;17.20;99.90;;;;;;4991474;28;20055;-74
2023/10/11 07:50:01;;;;;;;19.10;7.18;;;17.20;99.90;;;;;;4974503;28;20050;-83
2023/10/11 07:52:47;;;;;;;22.65;10.57;;;17.20;99.90;;;;;;4960627;28;20495;-85
2023/10/11 07:55:33;;;;;;;18.25;8.13;;;17.20;99.90;;;;;;4975021;28;20050;-78
2023/10/11 07:58:26;;;;;;;18.85;7.72;;;17.20;99.90;;;;;;4974033;28;20059;-78
2023/10/11 08:01:25;;;;;;;18.13;7.20;;;17.20;99.90;;;;;;4959340;28;20061;-74
2023/10/11 08:04:21;;;;;;;18.77;7.60;;;17.20;99.90;;;;;;4973870;28;20054;-75
2023/10/11 08:07:12;;;;;;;21.77;8.25;;;17.20;99.90;;;;;;4973719;28;20062;-75
2023/10/11 08:10:10;;;;;;;19.60;6.78;;;17.20;99.90;;;;;;4990536;28;20104;-81
2023/10/11 08:12:59;;;;;;;16.05;6.40;;;17.20;99.90;;;;;;4974229;28;20054;-74
2023/10/11 08:15:45;;;;;;;15.80;6.82;;;17.20;99.90;;;;;;4976694;28;20141;-86
2023/10/11 08:18:32;;;;;;;16.00;6.95;;;17.30;99.90;;;;;;4992793;28;20459;-80
2023/10/11 08:21:18;;;;;;;19.55;6.30;;;17.30;99.90;;;;;;4976921;28;20050;-81
2023/10/11 08:24:15;;;;;;;15.02;6.13;;;17.40;99.90;;;;;;4977161;28;20054;-83
2023/10/11 08:27:08;;;;;;;18.60;7.30;;;17.50;99.90;;;;;;4977552;28;20514;-75
2023/10/11 08:30:08;;;;;;;12.38;5.30;;;17.50;99.90;;;;;;4975987;28;20054;-73
2023/10/11 08:32:54;;;;;;;11.50;5.13;;;17.60;99.90;;;;;;4977219;28;20160;-77
2023/10/11 08:35:46;;;;;;;14.90;5.97;;;17.60;99.90;;;;;;4977434;28;20108;-77
2023/10/11 08:38:33;;;;;;;17.88;5.93;;;17.70;99.90;;;;;;4978143;28;20058;-74
2023/10/11 08:41:19;;;;;;;17.67;7.43;;;17.70;99.90;;;;;;4963041;28;20054;-75
2023/10/11 08:44:15;;;;;;;15.65;7.20;;;17.80;99.90;;;;;;4977731;28;20054;-83
2023/10/11 08:47:04;;;;;;;20.23;9.05;;;17.80;99.90;;;;;;4994943;28;20058;-75
2023/10/11 08:49:50;;;;;;;21.85;9.43;;;17.80;99.90;;;;;;4970475;28;20062;-75
2023/10/11 08:52:38;;;;;;;25.33;10.32;;;17.80;99.90;;;;;;4984756;28;20054;-75
2023/10/11 08:55:25;;;;;;;17.05;8.15;;;17.80;99.90;;;;;;4971948;28;20042;-76
2023/10/11 08:58:23;;;;;;;17.00;7.60;;;17.80;99.90;;;;;;4984568;28;20062;-74
2023/10/11 09:01:09;;;;;;;12.38;6.50;;;17.70;99.90;;;;;;4993772;28;20522;-73
2023/10/11 09:04:06;;;;;;;12.40;6.20;;;17.80;99.90;;;;;;4993317;28;20080;-78
2023/10/11 09:06:57;;;;;;;13.73;7.00;;;17.80;99.90;;;;;;4993526;28;20457;-73
2023/10/11 09:09:46;;;;;;;13.88;7.05;;;17.90;99.90;;;;;;4976413;28;20095;-76
2023/10/11 09:12:48;;;;;;;15.57;7.88;;;17.90;99.90;;;;;;4961176;28;20415;-74
2023/10/11 09:15:44;;;;;;;14.32;6.90;;;17.90;99.90;;;;;;4975873;28;20046;-73
2023/10/11 09:18:34;;;;;;;13.25;6.65;;;17.80;99.90;;;;;;4976182;28;20072;-74
2023/10/11 09:21:20;;;;;;;16.75;6.35;;;17.80;99.90;;;;;;4993090;28;20062;-74
2023/10/11 09:24:28;;;;;;;17.98;6.63;;;17.80;99.90;;;;;;4993501;28;20050;-80
2023/10/11 09:30:19;;;;;;;11.25;5.50;;;17.70;99.90;;;;;;4975910;28;20058;-74
2023/10/11 09:33:16;;;;;;;17.48;6.40;;;17.70;99.90;;;;;;4976416;28;20786;-73
2023/10/11 09:36:08;;;;;;;14.20;6.50;;;17.70;99.90;;;;;;4962307;28;20137;-74
2023/10/11 09:38:55;;;;;;;18.80;5.88;;;17.60;99.90;;;;;;4978326;28;20525;-77
2023/10/11 09:41:45;;;;;;;15.10;6.90;;;17.50;99.90;;;;;;4975586;28;20144;-74
2023/10/11 09:44:39;;;;;;;14.80;6.28;;;17.50;99.90;;;;;;4963009;28;20410;-72
2023/10/11 09:47:31;;;;;;;18.63;6.63;;;17.50;99.90;;;;;;4975006;28;20054;-73
2023/10/11 09:50:17;;;;;;;16.08;5.88;;;17.50;99.90;;;;;;4993071;28;20118;-75
2023/10/11 09:53:07;;;;;;;13.25;5.57;;;17.50;99.90;;;;;;4975358;28;20471;-73
2023/10/11 09:56:03;;;;;;;15.10;6.75;;;17.50;99.90;;;;;;4961827;28;20141;-75
2023/10/11 09:59:11;;;;;;;17.42;6.03;;;17.60;99.90;;;;;;4975278;28;20061;-74
2023/10/11 10:02:09;;;;;;;18.75;7.22;;;17.60;99.90;;;;;;4976083;28;20058;-73
2023/10/11 10:04:57;;;;;;;12.10;5.38;;;17.70;99.90;;;;;;4974997;28;20065;-75
2023/10/11 10:07:44;;;;;;;17.05;5.72;;;17.70;99.90;;;;;;4975249;28;20050;-74
2023/10/11 10:10:53;;;;;;;14.57;6.13;;;17.80;99.90;;;;;;4959997;28;20061;-74
2023/10/11 10:14:22;;;;;;;17.90;6.00;;;17.90;99.90;;;;;;4975106;28;20054;-75
2023/10/11 10:17:13;;;;;;;16.63;5.10;;;17.90;99.90;;;;;;4973313;28;20125;-73
2023/10/11 10:20:28;;;;;;;17.52;5.07;;;18.00;99.90;;;;;;4974803;28;20081;-79
2023/10/11 10:23:14;;;;;;;14.98;5.13;;;18.00;99.90;;;;;;4974663;28;20066;-87
2023/10/11 10:26:03;;;;;;;12.27;5.63;;;18.10;99.90;;;;;;4974897;28;20062;-74
2023/10/11 10:28:57;;;;;;;13.93;5.57;;;18.10;99.90;;;;;;4960622;28;20058;-73
2023/10/11 10:32:03;;;;;;;11.25;5.47;;;18.20;99.90;;;;;;4960074;28;20046;-75
2023/10/11 10:34:56;;;;;;;12.07;4.80;;;18.30;99.90;;;;;;4975487;28;20047;-76
2023/10/11 10:37:55;;;;;;;17.05;5.32;;;18.30;99.90;;;;;;4974301;28;20057;-74
2023/10/11 10:40:47;;;;;;;13.13;4.82;;;18.40;99.90;;;;;;4991678;28;20056;-74
2023/10/11 10:43:33;;;;;;;16.08;4.90;;;18.40;99.90;;;;;;4974577;28;20058;-76
2023/10/11 10:46:19;;;;;;;12.70;5.38;;;18.40;99.90;;;;;;4974472;28;20064;-74
2023/10/11 10:49:05;;;;;;;12.80;5.07;;;18.40;99.90;;;;;;4991512;28;20053;-77
2023/10/11 10:51:53;;;;;;;13.18;5.45;;;18.30;99.90;;;;;;4973984;28;20388;-86
2023/10/11 10:54:51;;;;;;;18.75;5.13;;;18.30;99.90;;;;;;4961105;28;20070;-75
2023/10/11 10:57:37;;;;;;;15.65;5.00;;;18.40;99.90;;;;;;4974707;28;20058;-75
2023/10/11 11:00:25;;;;;;;10.48;4.70;;;18.50;99.90;;;;;;4991491;28;20047;-76
2023/10/11 11:03:22;;;;;;;10.38;4.22;;;18.60;99.90;;;;;;4973295;28;20392;-74
2023/10/11 11:06:11;;;;;;;21.50;6.60;;;18.70;99.90;;;;;;4974399;28;20051;-78
2023/10/11 11:08:59;;;;;;;11.85;4.22;;;18.70;99.90;;;;;;4973619;28;20565;-74
2023/10/11 11:11:48;;;;;;;19.10;4.72;;;18.80;99.90;;;;;;4976884;28;20081;-75
2023/10/11 11:14:34;;;;;;;13.00;5.72;;;18.80;99.90;;;;;;4994391;28;20042;-74
2023/10/11 11:17:23;;;;;;;13.75;5.38;;;18.70;99.90;;;;;;4992459;28;20551;-79
2023/10/11 11:20:13;;;;;;;15.68;4.93;;;18.70;99.90;;;;;;4973795;28;20525;-75
2023/10/11 11:22:59;;;;;;;19.05;6.20;;;18.70;99.90;;;;;;4991183;28;20054;-83
2023/10/11 11:25:52;;;;;;;17.08;5.15;;;18.70;99.90;;;;;;4973711;28;20502;-79
2023/10/11 11:28:43;;;;;;;15.98;5.00;;;18.80;99.90;;;;;;4978029;28;20594;-79
2023/10/11 11:31:38;;;;;;;16.02;5.03;;;18.70;99.90;;;;;;4974532;28;20479;-75
2023/10/11 11:34:27;;;;;;;;;;;18.80;99.90;;;;;;4974135;28;20050;-83
2023/10/11 11:37:20;;;;;;;10.25;4.00;;;18.90;99.90;;;;;;4973829;28;19928;-86
2023/10/11 11:40:24;;;;;;;15.82;4.45;;;19.00;99.90;;;;;;4960746;28;20046;-76
2023/10/11 11:43:11;;;;;;;13.80;4.57;;;19.00;99.90;;;;;;4974404;28;20050;-80
2023/10/11 11:46:01;;;;;;;16.83;5.05;;;19.00;99.90;;;;;;4973987;28;20138;-74
2023/10/11 11:48:50;;;;;;;14.63;4.13;;;19.50;99.90;;;;;;4974562;28;20059;-76
2023/10/11 11:51:37;;;;;;;14.10;4.45;;;19.80;99.90;;;;;;4977572;28;20094;-76
2023/10/11 11:54:28;;;;;;;13.20;4.13;;;19.80;99.90;;;;;;4977674;28;20066;-74
2023/10/11 11:57:14;;;;;;;11.90;4.20;;;19.70;99.90;;;;;;4964062;28;20058;-80
2023/10/11 12:00:19;;;;;;;14.43;4.13;;;19.40;99.90;;;;;;4978057;28;20054;-73
2023/10/11 12:03:08;;;;;;;16.13;4.68;;;19.20;99.90;;;;;;4963259;28;20121;-77
2023/10/11 12:05:54;;;;;;;15.27;5.05;;;19.10;99.90;;;;;;4978122;28;20058;-77
2023/10/11 12:08:40;;;;;;;19.90;5.65;;;19.00;99.90;;;;;;4977447;28;20058;-78
2023/10/11 12:11:28;;;;;;;20.52;4.95;;;18.80;99.90;;;;;;4977783;28;20054;-78
2023/10/11 12:14:15;;;;;;;13.25;4.07;;;18.80;99.90;;;;;;4977013;28;20228;-83
2023/10/11 12:17:01;;;;;;;13.40;3.65;;;18.70;99.90;;;;;;4976604;28;20105;-74
2023/10/11 12:19:53;;;;;;;15.65;4.90;;;18.60;99.90;;;;;;4994138;28;20141;-76
2023/10/11 12:22:42;;;;;;;12.02;5.28;;;18.70;99.90;;;;;;4976893;28;20064;-79
2023/10/11 12:25:32;;;;;;;20.30;5.07;;;18.70;99.90;;;;;;4976000;28;20120;-72
2023/10/11 12:28:22;;;;;;;13.48;4.38;;;18.70;99.90;;;;;;4962629;28;20054;-77
2023/10/11 12:31:08;;;;;;;19.35;4.47;;;18.80;99.90;;;;;;4963531;28;20090;-75
2023/10/11 12:33:54;;;;;;;15.98;5.35;;;18.80;99.90;;;;;;4962881;28;20050;-77
2023/10/11 12:36:41;;;;;;;11.85;4.30;;;18.80;99.90;;;;;;4977156;28;20137;-75
2023/10/11 12:39:33;;;;;;;15.15;4.70;;;18.80;99.90;;;;;;4976178;28;20065;-74
2023/10/11 12:42:19;;;;;;;14.13;4.47;;;18.90;99.90;;;;;;4975879;28;20050;-77
2023/10/11 12:45:08;;;;;;;17.95;5.20;;;19.00;99.90;;;;;;4993853;28;20417;-74
2023/10/11 12:47:54;;;;;;;15.75;4.10;;;18.90;99.90;;;;;;4979972;28;20058;-76
2023/10/11 12:50:40;;;;;;;13.07;4.80;;;18.90;99.90;;;;;;4976793;28;20108;-74
2023/10/11 12:53:29;;;;;;;15.90;4.47;;;18.90;99.90;;;;;;4993719;28;20105;-79
2023/10/11 12:56:15;;;;;;;15.77;4.90;;;18.80;99.90;;;;;;4976748;28;20054;-73
2023/10/11 12:59:01;;;;;;;14.88;4.60;;;18.80;99.90;;;;;;4961876;28;20415;-74
2023/10/11 13:01:50;;;;;;;14.73;4.60;;;18.70;99.90;;;;;;4975055;28;20050;-74
2023/10/11 13:04:41;;;;;;;15.43;5.00;;;18.60;99.90;;;;;;4976524;28;20058;-78
2023/10/11 13:07:27;;;;;;;14.00;4.90;;;18.70;99.90;;;;;;4962488;28;20117;-73
2023/10/11 13:10:13;;;;;;;17.60;6.03;;;18.60;99.90;;;;;;4977878;28;20042;-77
2023/10/11 13:12:59;;;;;;;13.38;4.85;;;18.60;99.90;;;;;;4962292;28;20054;-82
2023/10/11 13:15:59;;;;;;;13.27;5.00;;;18.60;99.90;;;;;;4975461;28;20134;-77
2023/10/11 13:18:45;;;;;;;15.52;5.55;;;18.60;99.90;;;;;;4975682;28;20058;-78
2023/10/11 13:21:33;;;;;;;17.40;5.32;;;18.60;99.90;;;;;;4961345;28;20050;-79
2023/10/11 13:24:24;;;;;;;17.20;5.55;;;18.60;99.90;;;;;;4975338;28;20050;-74
2023/10/11 13:27:10;;;;;;;12.68;4.60;;;18.60;99.90;;;;;;4975617;28;20054;-82
2023/10/11 13:30:01;;;;;;;13.18;5.22;;;18.50;99.90;;;;;;4975840;28;20081;-75
2023/10/11 13:32:49;;;;;;;17.38;5.53;;;18.50;99.90;;;;;;4993053;28;20093;-76
2023/10/11 13:35:35;;;;;;;11.48;4.22;;;18.50;99.90;;;;;;4976841;28;20062;-73
2023/10/11 13:38:21;;;;;;;18.67;4.53;;;18.60;99.90;;;;;;4976357;28;20055;-73
2023/10/11 13:41:14;;;;;;;11.48;4.15;;;18.70;99.90;;;;;;4992737;28;20085;-74
2023/10/11 13:44:01;;;;;;;23.40;6.18;;;18.80;99.90;;;;;;4993364;28;20058;-75
2023/10/11 13:46:51;;;;;;;14.80;4.10;;;18.90;99.90;;;;;;4992133;28;20125;-75
2023/10/11 13:49:39;;;;;;;13.10;3.88;;;19.00;99.90;;;;;;4975972;28;20056;-76
2023/10/11 13:52:25;;;;;;;12.05;3.38;;;19.00;99.90;;;;;;4992955;28;20061;-75
2023/10/11 13:55:11;;;;;;;14.25;4.07;;;18.90;99.90;;;;;;4992979;28;20054;-75
2023/10/11 13:57:57;;;;;;;12.90;3.63;;;18.90;99.90;;;;;;4975912;28;20498;-76
2023/10/11 14:06:42;;;;;;;20.27;4.93;;;19.00;99.90;;;;;;4974904;28;20502;-81
2023/10/11 14:09:30;;;;;;;14.45;4.20;;;19.00;99.90;;;;;;4975034;28;20060;-76
2023/10/11 14:12:18;;;;;;;13.85;4.80;;;18.80;99.90;;;;;;4974999;28;20050;-74
2023/10/11 14:15:08;;;;;;;11.75;5.10;;;18.80;99.90;;;;;;4975291;28;20054;-76
2023/10/11 14:17:55;;;;;;;16.33;5.10;;;18.80;99.90;;;;;;4975382;28;20396;-81
2023/10/11 14:20:47;;;;;;;21.83;6.28;;;18.80;99.90;;;;;;4974259;28;20050;-81
2023/10/11 14:23:36;;;;;;;20.15;4.30;;;18.80;99.90;;;;;;4974633;28;20046;-77
2023/10/11 14:26:22;;;;;;;18.17;4.25;;;18.90;99.90;;;;;;4974638;28;20120;-76
2023/10/11 14:29:08;;;;;;;12.75;4.25;;;19.10;99.90;;;;;;4974665;28;20132;-74
2023/10/11 14:31:56;;;;;;;12.48;4.03;;;19.10;99.90;;;;;;4974580;28;20065;-82
2023/10/11 14:34:45;;;;;;;15.75;4.40;;;19.00;99.90;;;;;;4974793;28;20476;-75
2023/10/11 14:37:31;;;;;;;20.17;4.82;;;18.80;99.90;;;;;;4975080;28;20495;-77
2023/10/11 14:40:17;;;;;;;14.02;4.72;;;18.80;99.90;;;;;;4974294;28;20050;-75
2023/10/11 14:43:06;;;;;;;18.13;4.22;;;18.70;99.90;;;;;;4991458;28;20105;-76
2023/10/11 14:45:53;;;;;;;15.40;4.28;;;18.70;99.90;;;;;;4974482;28;20061;-75
2023/10/11 14:48:39;;;;;;;14.18;4.10;;;18.60;99.90;;;;;;4973499;28;20061;-74
2023/10/11 14:51:25;;;;;;;15.23;4.55;;;18.60;99.90;;;;;;4974424;28;20059;-77
2023/10/11 14:54:12;;;;;;;13.82;4.80;;;18.70;99.90;;;;;;4976719;28;20057;-75
2023/10/11 14:57:00;;;;;;;14.77;4.00;;;18.60;99.90;;;;;;4974342;28;20058;-75
2023/10/11 14:59:46;;;;;;;16.27;4.18;;;18.60;99.90;;;;;;4992094;28;20050;-79
2023/10/11 15:02:32;;;;;;;15.32;4.82;;;18.60;99.90;;;;;;4974108;28;20209;-81
2023/10/11 15:05:19;;;;;;;21.60;4.57;;;18.60;99.90;;;;;;4973260;28;20089;-74
2023/10/11 15:08:05;;;;;;;10.90;3.75;;;18.60;99.90;;;;;;4974116;28;20057;-77
2023/10/11 15:10:52;;;;;;;15.18;4.38;;;18.60;99.90;;;;;;4974325;28;20061;-74
2023/10/11 15:13:39;;;;;;;14.27;3.78;;;18.50;99.90;;;;;;4961297;28;20491;-77
2023/10/11 15:16:26;;;;;;;16.15;5.07;;;18.50;99.90;;;;;;4974728;28;20184;-76
2023/10/11 15:19:12;;;;;;;14.30;4.75;;;18.50;99.90;;;;;;4973722;28;20104;-73
2023/10/11 15:21:59;;;;;;;18.17;4.47;;;18.40;99.90;;;;;;4972936;28;20057;-75